Bourbonnais, IL

4:26 AM CST on December 28, 2014 (GMT -0600)
Willow Brook | Change Station
CLOSE
Current Station
Personal Weather Station
Location: Bourbonnais, IL
Elevation: 662 ft
Nearby Weather Stations

Elev 662 ft 41.17 °N, 87.82 °W | Updated 2 seconds ago

Overcast
Overcast
27.3 °F
Feels Like 18 °F
N
9.2
Wind Variable Wind from NW
Gusts 9.2 mph

Today
High -- | Low -- °F
--% Chance of Precip.
Yesterday
High -- | Low -- °F
Precip. -- in
7:15 AM 4:29 PM
Waxing Crescent, 46% visible
Pressure 30.17 in
Visibility 10.0 miles
Clouds Overcast 1500 ft
Windchill 18 °F
Dew Point 23 °F
Humidity 84%
Rainfall 0.00 in
Snow Depth Not available.
UV 0.0 out of 12
Pollen .10 out of 12
Air Quality Not available.
Flu Activity Not available.
METAR KIKK 281015Z AUTO 30009KT 10SM OVC015 M02/M05 A3017 RMK AO2 T10221048

More Conditions Fewer Conditions

Pressure 30.17 in
Visibility 10.0 miles
Clouds Overcast 1500 ft
Windchill 18 °F
Dew Point 23 °F
Humidity 84%
Rainfall 0.00 in
Snow Depth Not available.
UV 0.0 out of 12
Pollen .10 out of 12
Air Quality Not available.
Flu Activity Not available.
METAR KIKK 281015Z AUTO 30009KT 10SM OVC015 M02/M05 A3017 RMK AO2 T10221048

More Conditions Fewer Conditions

10-Day Weather Forecast

Almanac

Astronomy

Dec. 28, 2014 Rise Set
Actual Time
Civil Twilight
Nautical Twilight
Astronomical Twilight
Moon
Length of Visible Light
Length of Day
Tomorrow will be .
, % of the Moon is Illuminated

Today's Extremes

State Highs State Lows

Community

WunderPhotos

Upload Photos

1,781,213 photos uploaded!

WunderBlogs® & News

Nearby

Air Quality

  Air Quality AQ Index Pollutant
Not available.

Snow Depth

Station Depth Elevation

Earthquake Activity

City Distance Mag. Time & Date
Minimum magnitude displayed is 2.5.

Coastal Water Temperatures

Place Temperature

Nearby Weather Stations